Time;durP1;ratioP1;P1;durP2;ratioP2;P2;SDS_P1;SDS_P2;PMS_P1;PMS_P2;Temp;Humidity;BMP_temperature;BMP_pressure;BME280_temperature;BME280_humidity;BME280_pressure;Samples;Min_cycle;Max_cycle;Signal;HPM_P1;HPM_P2
2023/05/23 00:00:28;;;;;;;34.05;14.65;;;14.50;99.90;;;;;;5054601;28;20037;-67
2023/05/23 00:02:54;;;;;;;35.33;14.02;;;14.50;99.90;;;;;;5054526;28;20491;-68
2023/05/23 00:05:19;;;;;;;33.22;14.50;;;14.60;99.90;;;;;;5053432;28;20041;-67
2023/05/23 00:07:45;;;;;;;29.23;15.15;;;14.60;99.90;;;;;;5054326;28;20492;-67
2023/05/23 00:10:11;;;;;;;36.13;16.27;;;;;;;;;;5067794;28;20051;-68
2023/05/23 00:12:38;;;;;;;34.65;13.40;;;14.40;99.90;;;;;;5074075;28;20098;-69
2023/05/23 00:15:06;;;;;;;38.42;14.85;;;14.40;99.90;;;;;;5072466;28;20447;-68
2023/05/23 00:17:32;;;;;;;32.40;14.73;;;14.50;99.90;;;;;;5053985;28;20124;-68
2023/05/23 00:19:58;;;;;;;35.70;15.50;;;;;;;;;;5054337;28;20116;-67
2023/05/23 00:22:24;;;;;;;36.67;16.42;;;14.50;99.90;;;;;;5054058;28;20041;-68
2023/05/23 00:24:49;;;;;;;36.85;13.60;;;14.30;99.90;;;;;;5054274;28;20100;-69
2023/05/23 00:27:15;;;;;;;33.60;13.88;;;14.50;99.90;;;;;;5053996;28;20123;-68
2023/05/23 00:29:40;;;;;;;38.83;15.10;;;14.50;99.90;;;;;;5052600;28;20040;-68
2023/05/23 00:32:06;;;;;;;31.98;14.30;;;14.30;99.90;;;;;;5054890;28;20114;-68
2023/05/23 00:34:33;;;;;;;36.95;13.75;;;14.60;99.90;;;;;;5054006;28;20033;-69
2023/05/23 00:36:58;;;;;;;29.63;13.02;;;14.50;99.90;;;;;;5053992;28;20112;-69
2023/05/23 00:39:24;;;;;;;32.33;13.80;;;14.50;99.90;;;;;;5053834;28;20046;-68
2023/05/23 00:41:49;;;;;;;32.25;13.70;;;14.40;99.90;;;;;;5054120;28;20075;-69
2023/05/23 00:44:15;;;;;;;32.45;11.93;;;;;;;;;;5054128;28;20037;-68
2023/05/23 00:46:44;;;;;;;30.70;13.43;;;14.30;99.90;;;;;;5054364;28;20036;-69
2023/05/23 00:49:11;;;;;;;30.15;11.38;;;14.10;99.90;;;;;;5055382;28;20037;-68
2023/05/23 00:51:37;;;;;;;32.90;11.90;;;14.30;99.90;;;;;;5053177;28;20076;-68
2023/05/23 00:54:04;;;;;;;37.55;12.85;;;14.20;99.90;;;;;;5053438;28;20072;-68
2023/05/23 00:56:30;;;;;;;29.48;11.60;;;;;;;;;;5053406;28;20037;-68
2023/05/23 00:58:57;;;;;;;23.83;11.07;;;14.20;99.90;;;;;;5053355;28;20041;-68
2023/05/23 01:01:23;;;;;;;31.55;12.10;;;14.10;99.90;;;;;;5053496;28;20044;-68
2023/05/23 01:03:49;;;;;;;21.63;10.93;;;14.10;99.90;;;;;;5053178;28;20040;-68
2023/05/23 01:06:16;;;;;;;24.73;11.52;;;14.00;99.90;;;;;;5053254;28;20140;-68
2023/05/23 01:08:42;;;;;;;30.15;11.45;;;14.10;99.90;;;;;;5053321;28;20040;-68
2023/05/23 01:11:26;;;;;;;23.15;10.80;;;14.30;99.90;;;;;;5052842;28;20458;-68
2023/05/23 01:13:58;;;;;;;25.75;12.32;;;;;;;;;;5053314;28;20413;-68
2023/05/23 01:16:52;;;;;;;29.70;10.73;;;;;;;;;;5053272;28;20072;-68
2023/05/23 01:19:47;;;;;;;24.23;11.07;;;14.00;99.90;;;;;;5066790;28;20053;-68
2023/05/23 01:22:47;;;;;;;29.10;11.57;;;13.90;99.90;;;;;;5052677;28;20497;-69
2023/05/23 01:25:57;;;;;;;24.83;12.02;;;13.90;99.90;;;;;;5053048;28;20041;-69
2023/05/23 01:28:28;;;;;;;32.33;12.93;;;13.80;99.90;;;;;;5052486;28;20084;-68
2023/05/23 01:30:56;;;;;;;30.40;12.15;;;13.80;99.90;;;;;;5052936;28;20033;-68
2023/05/23 01:33:24;;;;;;;28.50;11.45;;;14.00;99.90;;;;;;5052520;28;20112;-68
2023/05/23 01:35:50;;;;;;;32.90;11.63;;;;;;;;;;5052640;28;20063;-68
2023/05/23 01:38:16;;;;;;;33.10;12.57;;;;;;;;;;5053656;28;20086;-68
2023/05/23 01:40:42;;;;;;;32.83;12.57;;;;;;;;;;5052781;28;20505;-67
2023/05/23 01:43:08;;;;;;;31.00;11.60;;;;;;;;;;5052052;28;20044;-67
2023/05/23 01:45:34;;;;;;;31.17;11.50;;;;;;;;;;5052584;28;20040;-68
2023/05/23 01:48:03;;;;;;;27.70;10.57;;;15.40;99.90;;;;;;5052971;28;20040;-68
2023/05/23 01:50:30;;;;;;;30.35;11.45;;;13.80;99.90;;;;;;5053292;28;20115;-69
2023/05/23 01:52:56;;;;;;;28.45;10.40;;;;;;;;;;5051986;28;20404;-68
2023/05/23 01:55:25;;;;;;;27.80;11.32;;;13.90;99.90;;;;;;5053669;28;20040;-69
2023/05/23 01:57:53;;;;;;;26.98;9.45;;;13.70;99.90;;;;;;5052196;28;20122;-69
2023/05/23 02:00:19;;;;;;;29.50;10.90;;;13.80;99.90;;;;;;5052410;28;20404;-68
2023/05/23 02:02:45;;;;;;;24.13;9.38;;;13.70;99.90;;;;;;5052067;28;20060;-68
2023/05/23 02:05:11;;;;;;;24.98;9.25;;;13.80;99.90;;;;;;5052261;28;20041;-68
2023/05/23 02:07:37;;;;;;;22.77;9.50;;;13.70;99.90;;;;;;5051920;28;20040;-69
2023/05/23 02:10:03;;;;;;;18.02;7.32;;;13.80;99.90;;;;;;5052187;28;20394;-68
2023/05/23 02:12:30;;;;;;;21.58;8.32;;;;;;;;;;5052938;28;20028;-68
2023/05/23 02:14:56;;;;;;;22.60;9.50;;;;;;;;;;5052088;28;20037;-68
2023/05/23 02:17:23;;;;;;;23.83;9.00;;;13.90;99.90;;;;;;5052019;28;20040;-68
2023/05/23 02:19:48;;;;;;;25.02;8.93;;;13.80;99.90;;;;;;5052060;28;20412;-68
2023/05/23 02:22:15;;;;;;;23.92;8.75;;;;;;;;;;5051539;28;20043;-67
2023/05/23 02:24:40;;;;;;;19.73;9.35;;;14.00;99.90;;;;;;5052224;28;20033;-69
2023/05/23 02:27:06;;;;;;;27.05;9.50;;;;;;;;;;5051892;28;20047;-69
2023/05/23 02:29:32;;;;;;;24.65;8.77;;;;;;;;;;5052910;28;20659;-69
2023/05/23 02:31:58;;;;;;;21.55;8.70;;;13.70;99.90;;;;;;5051558;28;20045;-68
2023/05/23 02:34:23;;;;;;;23.60;10.40;;;13.70;99.90;;;;;;5051820;28;20036;-68
2023/05/23 02:36:50;;;;;;;27.35;9.35;;;13.80;99.90;;;;;;5051508;28;20121;-68
2023/05/23 02:39:16;;;;;;;24.48;9.32;;;13.70;99.90;;;;;;5051769;28;20045;-68
2023/05/23 02:41:41;;;;;;;28.48;9.40;;;13.80;99.90;;;;;;5050439;28;20128;-67
2023/05/23 02:44:07;;;;;;;30.00;8.35;;;;;;;;;;5051692;28;20044;-68
2023/05/23 02:46:33;;;;;;;20.83;8.80;;;;;;;;;;5051499;28;20466;-68
2023/05/23 02:48:59;;;;;;;25.00;8.98;;;;;;;;;;5051380;28;20045;-68
2023/05/23 02:51:25;;;;;;;22.65;7.88;;;;;;;;;;5051204;28;20134;-68
2023/05/23 02:53:51;;;;;;;24.45;9.10;;;;;;;;;;5051497;28;20037;-68
2023/05/23 02:56:17;;;;;;;30.27;9.55;;;13.70;99.90;;;;;;5051554;28;20041;-68
2023/05/23 02:58:43;;;;;;;22.88;8.40;;;13.60;99.90;;;;;;5050251;28;20073;-69
2023/05/23 03:01:08;;;;;;;26.17;7.85;;;13.70;99.90;;;;;;5051367;28;20496;-69
2023/05/23 03:03:34;;;;;;;23.42;7.60;;;13.80;99.90;;;;;;5051256;28;20044;-69
2023/05/23 03:06:02;;;;;;;18.15;7.22;;;13.40;99.90;;;;;;5052276;28;20099;-69
2023/05/23 03:08:27;;;;;;;23.02;7.40;;;13.70;99.90;;;;;;5051448;28;20091;-68
2023/05/23 03:10:53;;;;;;;16.80;7.93;;;13.50;99.90;;;;;;5051471;28;20080;-69
2023/05/23 03:13:19;;;;;;;21.02;7.32;;;;;;;;;;5051170;28;20029;-68
2023/05/23 03:15:45;;;;;;;22.95;8.88;;;;;;;;;;5051285;28;20128;-69
2023/05/23 03:18:11;;;;;;;20.33;7.40;;;;;;;;;;5051250;28;20041;-69
2023/05/23 03:20:37;;;;;;;20.60;6.75;;;;;;;;;;5051175;28;20091;-69
2023/05/23 03:23:03;;;;;;;18.02;5.32;;;;;;;;;;5052253;28;20045;-69
2023/05/23 03:25:29;;;;;;;21.10;6.60;;;13.50;99.90;;;;;;5051357;28;20076;-68
2023/05/23 03:27:54;;;;;;;20.90;6.28;;;13.60;99.90;;;;;;5051179;28;20075;-68
2023/05/23 03:30:20;;;;;;;19.48;5.95;;;13.40;99.90;;;;;;5051044;28;20040;-68
2023/05/23 03:32:46;;;;;;;15.80;5.70;;;13.60;99.90;;;;;;5063664;28;20037;-69
2023/05/23 03:35:11;;;;;;;20.58;6.45;;;13.40;99.90;;;;;;5070736;28;20048;-69
2023/05/23 03:37:37;;;;;;;18.95;5.85;;;13.50;99.90;;;;;;5071249;28;20043;-68
2023/05/23 03:40:03;;;;;;;18.00;6.75;;;13.40;99.90;;;;;;5069547;28;20033;-69
2023/05/23 03:42:29;;;;;;;23.73;6.35;;;13.40;99.90;;;;;;5070567;28;20037;-68
2023/05/23 03:44:55;;;;;;;23.92;6.47;;;13.30;99.90;;;;;;5066405;28;20056;-68
2023/05/23 03:47:23;;;;;;;18.58;6.72;;;;;;;;;;5050941;28;20040;-66
2023/05/23 03:49:49;;;;;;;20.80;7.80;;;;;;;;;;5050952;28;20570;-69
2023/05/23 03:52:15;;;;;;;20.67;8.90;;;;;;;;;;5052094;28;20045;-68
2023/05/23 03:54:41;;;;;;;17.83;6.30;;;;;;;;;;5054704;28;20041;-68
2023/05/23 03:57:06;;;;;;;21.63;5.82;;;13.30;99.90;;;;;;5054726;28;20154;-68
2023/05/23 03:59:32;;;;;;;18.13;5.53;;;13.40;99.90;;;;;;5055702;28;20389;-68
2023/05/23 04:01:59;;;;;;;13.05;6.10;;;13.20;99.90;;;;;;5054204;28;20095;-68
2023/05/23 04:04:28;;;;;;;13.32;6.80;;;13.40;99.90;;;;;;5054453;28;20047;-68
2023/05/23 04:06:54;;;;;;;14.07;5.50;;;13.40;99.90;;;;;;5054263;28;20037;-68
2023/05/23 04:09:20;;;;;;;14.48;5.75;;;13.10;99.90;;;;;;5054465;28;20037;-68
2023/05/23 04:11:46;;;;;;;20.02;5.18;;;13.20;99.90;;;;;;5054094;28;20052;-68
2023/05/23 04:14:12;;;;;;;21.92;5.88;;;;;;;;;;5054331;28;20544;-68
2023/05/23 04:16:40;;;;;;;16.55;5.20;;;;;;;;;;5054848;28;20045;-68
2023/05/23 04:19:06;;;;;;;19.65;5.20;;;13.10;99.90;;;;;;5054391;28;20045;-68
2023/05/23 04:21:33;;;;;;;22.60;6.38;;;13.20;99.90;;;;;;5054206;28;20037;-68
2023/05/23 04:23:59;;;;;;;13.63;5.10;;;13.10;99.90;;;;;;5054026;28;20044;-69
2023/05/23 04:26:24;;;;;;;18.58;6.03;;;13.10;99.90;;;;;;5053984;28;20451;-68
2023/05/23 04:28:53;;;;;;;21.00;5.70;;;;;;;;;;5065481;28;20040;-69
2023/05/23 04:31:19;;;;;;;15.68;5.13;;;;;;;;;;5073975;28;20058;-68
2023/05/23 04:33:45;;;;;;;20.08;6.82;;;13.10;99.90;;;;;;5064737;28;20029;-68
2023/05/23 04:36:10;;;;;;;14.05;5.43;;;13.10;99.90;;;;;;5067209;28;20039;-68
2023/05/23 04:38:39;;;;;;;12.98;5.68;;;13.00;99.90;;;;;;5073939;28;20044;-68
2023/05/23 04:41:08;;;;;;;14.10;5.30;;;12.90;99.90;;;;;;5073745;28;20036;-69
2023/05/23 04:43:36;;;;;;;17.75;5.30;;;12.70;99.90;;;;;;5072194;28;20040;-68
2023/05/23 04:46:02;;;;;;;21.17;6.63;;;12.90;99.90;;;;;;5072653;28;20115;-68
2023/05/23 04:48:30;;;;;;;14.60;6.03;;;;;;;;;;5073771;28;20090;-68
2023/05/23 04:51:00;;;;;;;14.25;5.68;;;;;;;;;;5071815;28;20575;-68
2023/05/23 04:53:26;;;;;;;17.00;6.00;;;;;;;;;;5072830;28;20048;-68
2023/05/23 04:55:52;;;;;;;16.33;5.13;;;;;;;;;;5073455;28;20415;-67
2023/05/23 04:58:18;;;;;;;15.13;5.45;;;;;;;;;;5073313;28;20032;-68
2023/05/23 05:00:44;;;;;;;18.45;5.68;;;12.70;99.90;;;;;;5073444;28;20044;-69
2023/05/23 05:03:10;;;;;;;20.15;7.22;;;;;;;;;;5072649;28;20036;-68
2023/05/23 05:05:36;;;;;;;15.75;5.93;;;;;;;;;;5073060;28;20098;-68
2023/05/23 05:08:02;;;;;;;20.88;6.60;;;;;;;;;;5073105;28;20032;-69
2023/05/23 05:10:28;;;;;;;22.35;6.75;;;;;;;;;;5070991;28;20408;-67
2023/05/23 05:12:54;;;;;;;16.23;6.15;;;12.70;99.90;;;;;;5073092;28;20041;-68
2023/05/23 05:15:20;;;;;;;14.45;5.97;;;;;;;;;;5072854;28;20044;-68
2023/05/23 05:17:46;;;;;;;12.38;4.70;;;;;;;;;;5071976;28;20048;-68
2023/05/23 05:20:12;;;;;;;16.65;5.90;;;12.50;99.90;;;;;;5073119;28;20040;-69
2023/05/23 05:22:41;;;;;;;14.80;5.20;;;12.50;99.90;;;;;;5069430;28;20468;-68
2023/05/23 05:25:08;;;;;;;19.75;5.38;;;12.90;99.90;;;;;;5061348;28;20047;-68
2023/05/23 05:27:36;;;;;;;15.93;4.95;;;12.70;99.90;;;;;;5057296;28;20045;-67
2023/05/23 05:30:08;;;;;;;14.77;5.32;;;12.50;99.90;;;;;;5062569;28;20056;-68
2023/05/23 05:32:34;;;;;;;18.08;6.22;;;12.70;99.90;;;;;;5069449;28;20086;-68
2023/05/23 05:35:00;;;;;;;24.58;6.30;;;12.70;99.90;;;;;;5062983;28;20037;-68
2023/05/23 05:37:26;;;;;;;14.50;5.30;;;12.70;99.90;;;;;;5061979;28;20031;-69
2023/05/23 05:39:53;;;;;;;13.80;5.15;;;12.60;99.90;;;;;;5063096;28;20416;-68
2023/05/23 05:42:21;;;;;;;15.13;4.60;;;12.70;99.90;;;;;;5061216;28;20431;-67
2023/05/23 05:44:48;;;;;;;16.23;4.38;;;12.80;99.90;;;;;;5060978;28;20044;-68
2023/05/23 05:47:14;;;;;;;11.60;4.53;;;12.70;99.90;;;;;;5059263;28;20040;-68
2023/05/23 05:49:40;;;;;;;16.08;3.88;;;12.50;99.90;;;;;;5052444;28;20407;-68
2023/05/23 05:52:07;;;;;;;16.42;4.25;;;12.50;99.90;;;;;;5052064;28;20132;-67
2023/05/23 05:54:32;;;;;;;13.13;3.90;;;12.40;99.90;;;;;;5064301;28;20106;-68
2023/05/23 05:56:58;;;;;;;14.30;4.10;;;;;;;;;;5060846;28;20036;-68
2023/05/23 05:59:24;;;;;;;13.13;3.90;;;;;;;;;;5062486;28;20032;-67
2023/05/23 06:01:51;;;;;;;22.48;5.07;;;12.40;99.90;;;;;;5061560;28;20090;-68
2023/05/23 06:04:20;;;;;;;30.30;6.20;;;12.40;99.90;;;;;;5052217;28;20049;-68
2023/05/23 06:06:46;;;;;;;13.30;3.95;;;;;;;;;;5049998;28;20056;-68
2023/05/23 06:09:12;;;;;;;13.88;3.95;;;;;;;;;;5068001;28;20067;-68
2023/05/23 06:11:39;;;;;;;18.90;4.10;;;;;;;;;;5064901;28;20036;-68
2023/05/23 06:14:06;;;;;;;21.67;4.10;;;12.60;99.90;;;;;;5055548;28;20041;-65
2023/05/23 06:16:32;;;;;;;17.88;3.97;;;;;;;;;;5059143;28;20092;-67
2023/05/23 06:18:58;;;;;;;19.48;4.32;;;;;;;;;;5049421;28;20041;-68
2023/05/23 06:21:24;;;;;;;22.58;4.20;;;;;;;;;;5048177;28;20056;-68
2023/05/23 06:23:50;;;;;;;22.35;4.07;;;;;;;;;;5052052;28;20133;-68
2023/05/23 06:26:16;;;;;;;16.90;4.05;;;;;;;;;;5052218;28;20044;-68
2023/05/23 06:28:42;;;;;;;14.07;3.95;;;;;;;;;;5050864;28;21269;-68
2023/05/23 06:31:11;;;;;;;16.55;3.67;;;;;;;;;;5049372;28;20049;-65
2023/05/23 06:33:37;;;;;;;18.92;4.15;;;;;;;;;;5057793;28;20040;-69
2023/05/23 06:36:03;;;;;;;14.10;4.47;;;;;;;;;;5055630;28;20044;-69
2023/05/23 06:38:32;;;;;;;27.30;5.07;;;13.30;99.90;;;;;;5050155;28;20033;-67
2023/05/23 06:40:58;;;;;;;24.92;4.63;;;;;;;;;;5057284;28;20419;-69
2023/05/23 06:43:24;;;;;;;31.38;4.60;;;13.30;99.90;;;;;;5056779;28;20036;-69
2023/05/23 06:45:50;;;;;;;20.17;4.93;;;;;;;;;;5054428;28;20129;-69
2023/05/23 06:48:16;;;;;;;21.38;4.97;;;;;;;;;;5051375;28;20548;-67
2023/05/23 06:50:41;;;;;;;19.45;3.92;;;13.50;99.90;;;;;;5047789;28;20052;-68
2023/05/23 06:53:07;;;;;;;19.48;4.28;;;;;;;;;;5048298;28;20036;-68
2023/05/23 06:55:33;;;;;;;19.73;4.97;;;;;;;;;;5048121;28;20045;-69
2023/05/23 06:58:02;;;;;;;18.45;3.50;;;13.40;99.90;;;;;;5042224;28;20053;-68
2023/05/23 07:00:28;;;;;;;16.05;3.92;;;;;;;;;;5053858;28;20043;-68
2023/05/23 07:02:55;;;;;;;19.20;3.92;;;;;;;;;;5051829;28;20076;-67
2023/05/23 07:05:21;;;;;;;20.42;4.43;;;;;;;;;;5048896;28;20568;-65
2023/05/23 07:07:47;;;;;;;16.42;4.07;;;13.20;99.90;;;;;;5051049;28;20147;-67
2023/05/23 07:10:13;;;;;;;13.25;3.80;;;;;;;;;;5051899;28;20037;-68
2023/05/23 07:12:39;;;;;;;18.63;3.65;;;;;;;;;;5046492;28;20064;-68
2023/05/23 07:15:05;;;;;;;18.33;3.45;;;12.80;99.90;;;;;;5052836;28;20570;-65
2023/05/23 07:17:31;;;;;;;21.02;4.63;;;;;;;;;;5053559;28;20029;-67
2023/05/23 07:19:57;;;;;;;26.92;4.40;;;;;;;;;;5052938;28;20419;-68
2023/05/23 07:22:23;;;;;;;16.63;3.67;;;;;;;;;;5051437;28;20039;-67
2023/05/23 07:24:49;;;;;;;14.20;3.65;;;;;;;;;;5048527;28;20040;-67
2023/05/23 07:27:15;;;;;;;20.83;4.28;;;;;;;;;;5056351;28;20037;-68
2023/05/23 07:29:41;;;;;;;22.65;3.35;;;;;;;;;;5050585;28;20556;-68
2023/05/23 07:32:07;;;;;;;19.30;4.32;;;;;;;;;;5056662;28;20496;-69
2023/05/23 07:34:33;;;;;;;17.70;3.45;;;;;;;;;;5067901;28;20112;-68
2023/05/23 07:37:00;;;;;;;20.55;4.05;;;;;;;;;;5052987;28;20055;-67
2023/05/23 07:39:26;;;;;;;18.58;5.00;;;;;;;;;;5055050;28;20040;-68
2023/05/23 07:41:52;;;;;;;18.15;4.18;;;;;;;;;;5060957;28;20524;-67
2023/05/23 07:44:19;;;;;;;16.90;4.15;;;;;;;;;;5068399;28;20072;-68
2023/05/23 07:46:44;;;;;;;15.35;3.60;;;;;;;;;;5058917;28;20041;-68
2023/05/23 07:49:10;;;;;;;17.67;3.58;;;13.60;99.90;;;;;;5067490;28;20047;-68
2023/05/23 07:51:36;;;;;;;18.08;3.72;;;;;;;;;;5073040;28;20247;-67
2023/05/23 07:54:02;;;;;;;21.58;4.22;;;;;;;;;;5055986;28;20072;-67
2023/05/23 07:56:28;;;;;;;16.80;4.32;;;14.20;99.90;;;;;;5071796;28;20122;-67
2023/05/23 07:58:54;;;;;;;18.80;4.13;;;;;;;;;;5065167;28;20043;-67
2023/05/23 08:01:21;;;;;;;16.45;3.40;;;14.20;99.90;;;;;;5071458;28;20454;-67
2023/05/23 08:03:46;;;;;;;19.98;5.07;;;14.00;99.90;;;;;;5064409;28;20051;-67
2023/05/23 08:06:12;;;;;;;14.77;3.53;;;13.90;99.90;;;;;;5065298;28;20486;-67
2023/05/23 08:08:37;;;;;;;14.10;3.55;;;13.80;99.90;;;;;;5072971;28;20082;-66
2023/05/23 08:11:03;;;;;;;21.20;3.53;;;;;;;;;;5071449;28;20076;-67
2023/05/23 08:13:30;;;;;;;24.35;4.65;;;;;;;;;;5068176;28;20036;-67
2023/05/23 08:15:56;;;;;;;19.60;3.60;;;;;;;;;;5062329;28;20107;-67
2023/05/23 08:18:22;;;;;;;20.63;3.97;;;;;;;;;;5072093;28;20551;-67
2023/05/23 08:20:48;;;;;;;22.15;4.78;;;;;;;;;;5074032;28;20056;-67
2023/05/23 08:23:14;;;;;;;17.05;3.72;;;;;;;;;;5072216;28;20075;-67
2023/05/23 08:25:40;;;;;;;14.27;3.63;;;;;;;;;;5070083;28;20431;-66
2023/05/23 08:28:06;;;;;;;21.95;4.70;;;;;;;;;;5061739;28;20112;-67
2023/05/23 08:30:32;;;;;;;16.77;3.63;;;;;;;;;;5069984;28;20128;-66
2023/05/23 08:32:59;;;;;;;12.73;3.65;;;14.80;99.90;;;;;;5065126;28;20128;-67
2023/05/23 08:35:27;;;;;;;18.90;4.30;;;14.90;99.90;;;;;;5057849;28;20412;-67
2023/05/23 08:37:54;;;;;;;21.73;4.45;;;15.00;99.90;;;;;;5071430;28;20473;-68
2023/05/23 08:40:21;;;;;;;21.38;4.50;;;14.80;99.90;;;;;;5053011;28;20041;-67
2023/05/23 08:42:48;;;;;;;19.42;3.95;;;15.10;99.90;;;;;;5052930;28;20044;-67
2023/05/23 08:45:15;;;;;;;16.70;3.85;;;;;;;;;;5053317;28;20481;-68
2023/05/23 08:47:44;;;;;;;22.52;4.90;;;15.30;99.90;;;;;;5053722;28;20040;-70
2023/05/23 08:50:15;;;;;;;17.40;3.72;;;15.40;99.90;;;;;;5053012;28;20037;-68
2023/05/23 08:52:54;;;;;;;18.70;4.53;;;15.30;99.90;;;;;;5069462;28;20093;-67
2023/05/23 08:55:26;;;;;;;12.18;3.40;;;14.70;99.90;;;;;;5072622;28;20037;-68
2023/05/23 08:57:53;;;;;;;12.77;3.28;;;15.20;99.90;;;;;;5064650;28;20040;-68
2023/05/23 09:00:19;;;;;;;11.68;3.63;;;15.60;99.90;;;;;;5072429;28;20032;-68
2023/05/23 09:02:45;;;;;;;20.58;4.20;;;;;;;;;;5072248;28;20041;-67
2023/05/23 09:05:12;;;;;;;19.60;4.25;;;14.80;99.90;;;;;;5072662;28;20178;-67
2023/05/23 09:07:45;;;;;;;15.75;4.50;;;14.60;99.90;;;;;;5072353;28;20131;-68
2023/05/23 09:10:13;;;;;;;20.73;5.45;;;14.90;99.90;;;;;;5070276;28;20036;-67
2023/05/23 09:12:38;;;;;;;17.88;5.25;;;15.30;99.90;;;;;;5052808;28;20045;-67
2023/05/23 09:15:06;;;;;;;14.57;3.22;;;15.40;99.90;;;;;;5063771;28;20047;-67
2023/05/23 09:17:32;;;;;;;17.02;3.80;;;14.90;99.90;;;;;;5059892;28;20037;-67
2023/05/23 09:19:59;;;;;;;15.55;3.83;;;15.20;99.90;;;;;;5054130;28;20047;-68
2023/05/23 09:22:26;;;;;;;20.88;4.10;;;;;;;;;;5055182;28;20103;-68
2023/05/23 09:24:54;;;;;;;17.70;3.83;;;14.90;99.90;;;;;;5062242;28;20045;-68
2023/05/23 09:27:20;;;;;;;16.05;3.63;;;15.00;99.90;;;;;;5050423;28;20136;-67
2023/05/23 09:29:47;;;;;;;18.75;4.50;;;14.60;99.90;;;;;;5054845;28;20116;-68
2023/05/23 09:32:15;;;;;;;22.40;4.10;;;14.80;99.90;;;;;;5055441;28;20037;-67
2023/05/23 09:34:55;;;;;;;19.52;4.35;;;15.10;99.90;;;;;;5059811;28;20029;-67
2023/05/23 09:37:23;;;;;;;15.23;3.58;;;;;;;;;;5054816;28;20091;-67
2023/05/23 09:39:49;;;;;;;16.52;3.50;;;;;;;;;;5064702;28;20045;-67
2023/05/23 09:42:21;;;;;;;15.02;3.17;;;15.50;99.90;;;;;;5050715;28;20515;-68
2023/05/23 09:44:48;;;;;;;19.10;3.35;;;15.40;99.90;;;;;;5050948;28;20055;-68
2023/05/23 09:47:15;;;;;;;17.17;4.38;;;15.30;99.90;;;;;;5052493;28;20033;-68
2023/05/23 09:49:43;;;;;;;13.77;3.42;;;14.90;99.90;;;;;;5060313;28;20036;-68
2023/05/23 09:52:09;;;;;;;13.38;3.35;;;15.00;99.90;;;;;;5054984;28;20103;-68
2023/05/23 09:54:35;;;;;;;17.60;3.65;;;;;;;;;;5051463;28;20045;-68
2023/05/23 09:57:01;;;;;;;14.88;3.83;;;14.90;99.90;;;;;;5051003;28;20029;-70
2023/05/23 09:59:53;;;;;;;14.73;3.72;;;14.90;99.90;;;;;;5050785;28;20045;-68
2023/05/23 10:02:53;;;;;;;13.07;3.67;;;15.60;99.90;;;;;;5046140;28;20047;-66
2023/05/23 10:05:39;;;;;;;15.93;4.70;;;15.40;99.90;;;;;;5050831;28;20041;-68
2023/05/23 10:08:28;;;;;;;17.08;3.55;;;15.40;99.90;;;;;;5060072;28;20044;-68
2023/05/23 10:10:57;;;;;;;13.13;3.65;;;15.60;99.90;;;;;;5055859;28;20037;-68
2023/05/23 10:13:27;;;;;;;15.40;3.60;;;15.80;99.90;;;;;;5054408;28;20369;-68
2023/05/23 10:16:07;;;;;;;18.67;4.25;;;15.90;99.90;;;;;;5060629;28;20115;-67
2023/05/23 10:18:38;;;;;;;18.05;3.47;;;15.80;99.90;;;;;;5059815;28;20029;-69
2023/05/23 10:21:10;;;;;;;16.88;3.33;;;15.80;99.90;;;;;;5060759;28;20046;-68
2023/05/23 10:23:37;;;;;;;22.92;3.35;;;16.00;99.90;;;;;;5059829;28;20040;-67
2023/05/23 10:26:04;;;;;;;17.27;4.88;;;16.00;99.90;;;;;;5059731;28;20049;-67
2023/05/23 10:28:33;;;;;;;15.73;4.15;;;15.50;99.90;;;;;;5060194;28;20036;-69
2023/05/23 10:30:59;;;;;;;22.65;5.00;;;15.40;99.90;;;;;;5056481;28;20519;-66
2023/05/23 10:33:27;;;;;;;16.48;3.78;;;15.00;99.90;;;;;;5065866;28;20028;-67
2023/05/23 10:36:21;;;;;;;14.20;3.90;;;15.00;99.90;;;;;;5063459;28;20052;-67
2023/05/23 10:39:15;;;;;;;17.40;3.65;;;15.20;99.90;;;;;;5056080;28;20045;-67
2023/05/23 10:41:50;;;;;;;11.95;3.55;;;15.80;99.90;;;;;;5063720;28;20051;-67
2023/05/23 10:44:23;;;;;;;10.68;2.90;;;15.50;99.90;;;;;;5067268;28;20040;-67
2023/05/23 10:46:51;;;;;;;13.00;3.13;;;15.40;99.90;;;;;;5065900;28;20033;-66
2023/05/23 10:49:17;;;;;;;12.57;3.90;;;15.20;99.90;;;;;;5056228;28;20033;-68
2023/05/23 10:51:50;;;;;;;16.73;3.60;;;15.00;99.90;;;;;;5057961;28;20033;-67
2023/05/23 10:54:18;;;;;;;20.73;3.88;;;15.30;99.90;;;;;;5059834;28;20029;-66
2023/05/23 10:56:44;;;;;;;15.73;3.80;;;;;;;;;;5056638;28;20041;-68
2023/05/23 10:59:20;;;;;;;14.05;3.95;;;15.20;99.90;;;;;;5059295;28;20086;-66
2023/05/23 11:01:46;;;;;;;19.15;4.45;;;15.70;99.90;;;;;;5068704;28;20050;-66
2023/05/23 11:04:12;;;;;;;19.75;3.80;;;;;;;;;;5075096;28;20040;-67
2023/05/23 11:06:43;;;;;;;9.07;3.00;;;15.50;99.90;;;;;;5073139;28;20140;-65
2023/05/23 11:09:17;;;;;;;12.65;4.47;;;15.40;99.90;;;;;;5055519;28;20055;-66
2023/05/23 11:12:01;;;;;;;13.15;3.28;;;15.60;99.90;;;;;;5057364;28;20037;-67
2023/05/23 11:14:30;;;;;;;12.30;3.97;;;14.90;99.90;;;;;;5075118;28;20072;-66
2023/05/23 11:16:56;;;;;;;17.58;4.47;;;15.30;99.90;;;;;;5073364;28;20045;-66
2023/05/23 11:19:24;;;;;;;12.20;3.17;;;15.40;99.90;;;;;;5072759;28;20036;-64
2023/05/23 11:21:58;;;;;;;14.30;3.80;;;15.20;99.90;;;;;;5075025;28;20055;-67
2023/05/23 11:24:46;;;;;;;15.75;3.53;;;15.50;99.90;;;;;;5074608;28;20480;-66
2023/05/23 11:27:12;;;;;;;14.57;3.53;;;15.40;99.90;;;;;;5073821;28;20492;-67
2023/05/23 11:29:38;;;;;;;19.08;3.63;;;;;;;;;;5074552;28;20048;-66
2023/05/23 11:32:11;;;;;;;17.80;3.88;;;15.50;99.90;;;;;;5073833;28;20405;-66
2023/05/23 11:34:40;;;;;;;15.63;3.22;;;16.00;99.90;;;;;;5073157;28;20090;-67
2023/05/23 11:37:06;;;;;;;14.80;3.65;;;15.40;99.90;;;;;;5074900;28;20510;-67
2023/05/23 11:39:32;;;;;;;19.77;4.78;;;15.30;99.90;;;;;;5056384;28;20037;-67
2023/05/23 11:41:59;;;;;;;14.45;3.08;;;14.90;99.90;;;;;;5054322;28;20047;-67
2023/05/23 11:44:24;;;;;;;10.95;4.57;;;15.00;99.90;;;;;;5058501;28;20083;-66
2023/05/23 11:47:03;;;;;;;12.48;3.38;;;15.70;99.90;;;;;;5066495;28;20474;-66
2023/05/23 11:49:37;;;;;;;16.95;3.45;;;15.20;99.90;;;;;;5069129;28;20028;-67
2023/05/23 11:52:03;;;;;;;9.90;2.53;;;14.40;99.90;;;;;;5071730;28;20044;-67
2023/05/23 11:54:29;;;;;;;11.52;3.35;;;14.30;99.90;;;;;;5074209;28;20040;-66
2023/05/23 11:56:56;;;;;;;13.63;3.20;;;15.10;99.90;;;;;;5072580;28;20044;-67
2023/05/23 11:59:22;;;;;;;16.85;4.93;;;;;;;;;;5065672;28;20043;-67
2023/05/23 12:01:48;;;;;;;20.58;3.35;;;;;;;;;;5073697;28;20573;-67
2023/05/23 12:04:14;;;;;;;13.82;3.53;;;;;;;;;;5054705;28;20045;-66
2023/05/23 12:06:40;;;;;;;10.43;3.55;;;16.60;99.90;;;;;;5053525;28;20044;-67
2023/05/23 12:09:06;;;;;;;12.68;3.33;;;;;;;;;;5068297;28;20036;-67
2023/05/23 12:11:33;;;;;;;19.45;3.40;;;16.00;99.90;;;;;;5073623;28;20036;-68
2023/05/23 12:14:01;;;;;;;17.00;3.63;;;;;;;;;;5060094;28;20037;-67
2023/05/23 12:16:30;;;;;;;11.85;3.50;;;16.10;99.90;;;;;;5068866;28;20475;-66
2023/05/23 12:18:57;;;;;;;16.48;3.22;;;15.80;99.90;;;;;;5073836;28;20037;-66
2023/05/23 12:21:39;;;;;;;17.95;4.05;;;15.60;99.90;;;;;;5073483;28;20049;-67
2023/05/23 12:24:15;;;;;;;23.90;4.13;;;16.40;99.90;;;;;;5062578;28;20123;-67
2023/05/23 12:26:47;;;;;;;18.42;4.85;;;16.60;99.90;;;;;;5068873;28;20049;-67
2023/05/23 12:29:13;;;;;;;16.07;3.90;;;15.20;99.90;;;;;;5062800;28;20119;-67
2023/05/23 12:31:39;;;;;;;10.98;2.65;;;16.00;99.90;;;;;;5053619;28;20390;-67
2023/05/23 12:34:04;;;;;;;11.93;2.45;;;15.60;99.90;;;;;;5061877;28;20033;-67
2023/05/23 12:36:33;;;;;;;13.50;2.70;;;15.80;99.90;;;;;;5073219;28;20071;-67
2023/05/23 12:39:03;;;;;;;14.07;3.05;;;15.70;99.90;;;;;;5073769;28;20036;-66
2023/05/23 12:41:30;;;;;;;14.10;3.30;;;;;;;;;;5062945;28;20044;-67
2023/05/23 12:43:56;;;;;;;16.05;3.10;;;16.20;99.90;;;;;;5053496;28;20045;-67
2023/05/23 12:46:23;;;;;;;12.27;3.50;;;16.00;99.90;;;;;;5052691;28;20041;-67
2023/05/23 12:48:49;;;;;;;10.75;2.97;;;15.80;99.90;;;;;;5052836;28;20094;-67
2023/05/23 12:51:15;;;;;;;14.55;3.72;;;;;;;;;;5052830;28;20037;-67
2023/05/23 12:53:41;;;;;;;10.52;2.90;;;16.20;99.90;;;;;;5052360;28;20570;-67
2023/05/23 12:56:07;;;;;;;9.98;2.50;;;16.00;99.90;;;;;;5053032;28;20033;-67
2023/05/23 12:58:33;;;;;;;14.63;3.17;;;15.90;99.90;;;;;;5052879;28;20040;-67
2023/05/23 13:01:01;;;;;;;13.63;2.95;;;15.90;99.90;;;;;;5065151;28;20486;-67
2023/05/23 13:03:28;;;;;;;14.80;3.75;;;16.30;99.90;;;;;;5071909;28;20044;-67
2023/05/23 13:05:54;;;;;;;12.05;2.53;;;15.90;99.90;;;;;;5057781;28;20041;-66
2023/05/23 13:08:20;;;;;;;6.97;2.25;;;16.40;99.90;;;;;;5055265;28;20036;-67
2023/05/23 13:10:45;;;;;;;13.25;3.45;;;16.50;99.90;;;;;;5052824;28;20041;-67
2023/05/23 13:13:11;;;;;;;12.98;2.53;;;;;;;;;;5059197;28;20044;-67